sensor_id;sensor_type;location;lat;lon;timestamp;P1;durP1;ratioP1;P2;durP2;ratioP2
9799;SDS011;4939;52.00085300;4.17406100;2023-07-13T00:01:19;10.27;;;1.45;;
9799;SDS011;4939;52.00085300;4.17406100;2023-07-13T00:03:44;7.22;;;1.58;;
9799;SDS011;4939;52.00085300;4.17406100;2023-07-13T00:06:10;7.90;;;2.35;;
9799;SDS011;4939;52.00085300;4.17406100;2023-07-13T00:08:36;10.95;;;2.33;;
9799;SDS011;4939;52.00085300;4.17406100;2023-07-13T00:11:02;10.40;;;1.60;;
9799;SDS011;4939;52.00085300;4.17406100;2023-07-13T00:13:29;8.75;;;1.73;;
9799;SDS011;4939;52.00085300;4.17406100;2023-07-13T00:15:56;7.55;;;1.85;;
9799;SDS011;4939;52.00085300;4.17406100;2023-07-13T00:18:23;7.65;;;1.85;;
9799;SDS011;4939;52.00085300;4.17406100;2023-07-13T00:20:49;12.65;;;2.40;;
9799;SDS011;4939;52.00085300;4.17406100;2023-07-13T00:23:15;5.38;;;1.27;;
9799;SDS011;4939;52.00085300;4.17406100;2023-07-13T00:25:42;10.20;;;1.40;;
9799;SDS011;4939;52.00085300;4.17406100;2023-07-13T00:28:07;7.63;;;1.20;;
9799;SDS011;4939;52.00085300;4.17406100;2023-07-13T00:30:33;9.25;;;1.40;;
9799;SDS011;4939;52.00085300;4.17406100;2023-07-13T00:32:59;5.47;;;1.25;;
9799;SDS011;4939;52.00085300;4.17406100;2023-07-13T00:35:26;7.22;;;1.58;;
9799;SDS011;4939;52.00085300;4.17406100;2023-07-13T00:37:55;8.23;;;1.10;;
9799;SDS011;4939;52.00085300;4.17406100;2023-07-13T00:40:21;7.78;;;1.10;;
9799;SDS011;4939;52.00085300;4.17406100;2023-07-13T00:42:47;4.82;;;1.00;;
9799;SDS011;4939;52.00085300;4.17406100;2023-07-13T00:47:39;3.47;;;1.00;;
9799;SDS011;4939;52.00085300;4.17406100;2023-07-13T00:50:06;2.72;;;0.98;;
9799;SDS011;4939;52.00085300;4.17406100;2023-07-13T00:52:39;3.80;;;0.80;;
9799;SDS011;4939;52.00085300;4.17406100;2023-07-13T00:55:07;3.10;;;0.77;;
9799;SDS011;4939;52.00085300;4.17406100;2023-07-13T00:57:34;6.20;;;1.33;;
9799;SDS011;4939;52.00085300;4.17406100;2023-07-13T01:00:01;5.85;;;0.93;;
9799;SDS011;4939;52.00085300;4.17406100;2023-07-13T01:02:39;2.22;;;0.90;;
9799;SDS011;4939;52.00085300;4.17406100;2023-07-13T01:05:14;3.33;;;0.70;;
9799;SDS011;4939;52.00085300;4.17406100;2023-07-13T01:07:42;4.20;;;0.98;;
9799;SDS011;4939;52.00085300;4.17406100;2023-07-13T01:10:11;5.03;;;0.85;;
9799;SDS011;4939;52.00085300;4.17406100;2023-07-13T01:12:38;7.55;;;0.85;;
9799;SDS011;4939;52.00085300;4.17406100;2023-07-13T01:15:04;7.45;;;0.90;;
9799;SDS011;4939;52.00085300;4.17406100;2023-07-13T01:17:33;4.13;;;0.93;;
9799;SDS011;4939;52.00085300;4.17406100;2023-07-13T01:19:59;4.90;;;0.88;;
9799;SDS011;4939;52.00085300;4.17406100;2023-07-13T01:22:25;3.17;;;1.00;;
9799;SDS011;4939;52.00085300;4.17406100;2023-07-13T01:24:52;4.07;;;0.90;;
9799;SDS011;4939;52.00085300;4.17406100;2023-07-13T01:27:21;3.30;;;0.90;;
9799;SDS011;4939;52.00085300;4.17406100;2023-07-13T01:29:50;6.32;;;1.25;;
9799;SDS011;4939;52.00085300;4.17406100;2023-07-13T01:32:20;6.90;;;1.00;;
9799;SDS011;4939;52.00085300;4.17406100;2023-07-13T01:34:52;4.05;;;1.10;;
9799;SDS011;4939;52.00085300;4.17406100;2023-07-13T01:37:19;3.83;;;1.30;;
9799;SDS011;4939;52.00085300;4.17406100;2023-07-13T01:39:45;4.03;;;0.95;;
9799;SDS011;4939;52.00085300;4.17406100;2023-07-13T01:42:11;2.92;;;1.05;;
9799;SDS011;4939;52.00085300;4.17406100;2023-07-13T01:44:37;3.25;;;0.90;;
9799;SDS011;4939;52.00085300;4.17406100;2023-07-13T01:47:03;2.70;;;1.00;;
9799;SDS011;4939;52.00085300;4.17406100;2023-07-13T01:49:29;4.95;;;1.17;;
9799;SDS011;4939;52.00085300;4.17406100;2023-07-13T01:51:55;4.78;;;1.10;;
9799;SDS011;4939;52.00085300;4.17406100;2023-07-13T01:54:21;7.25;;;1.40;;
9799;SDS011;4939;52.00085300;4.17406100;2023-07-13T01:56:47;6.70;;;1.98;;
9799;SDS011;4939;52.00085300;4.17406100;2023-07-13T01:59:13;8.77;;;1.67;;
9799;SDS011;4939;52.00085300;4.17406100;2023-07-13T02:01:39;9.75;;;1.73;;
9799;SDS011;4939;52.00085300;4.17406100;2023-07-13T02:04:05;7.40;;;1.48;;
9799;SDS011;4939;52.00085300;4.17406100;2023-07-13T02:06:30;12.05;;;2.20;;
9799;SDS011;4939;52.00085300;4.17406100;2023-07-13T02:08:57;11.60;;;1.80;;
9799;SDS011;4939;52.00085300;4.17406100;2023-07-13T02:11:23;10.73;;;2.63;;
9799;SDS011;4939;52.00085300;4.17406100;2023-07-13T02:13:49;8.52;;;1.73;;
9799;SDS011;4939;52.00085300;4.17406100;2023-07-13T02:16:17;9.23;;;2.20;;
9799;SDS011;4939;52.00085300;4.17406100;2023-07-13T02:18:42;10.90;;;2.17;;
9799;SDS011;4939;52.00085300;4.17406100;2023-07-13T02:21:08;9.38;;;1.90;;
9799;SDS011;4939;52.00085300;4.17406100;2023-07-13T02:23:34;9.18;;;2.60;;
9799;SDS011;4939;52.00085300;4.17406100;2023-07-13T02:26:00;10.43;;;2.20;;
9799;SDS011;4939;52.00085300;4.17406100;2023-07-13T02:28:27;9.75;;;2.28;;
9799;SDS011;4939;52.00085300;4.17406100;2023-07-13T02:30:53;11.82;;;2.40;;
9799;SDS011;4939;52.00085300;4.17406100;2023-07-13T02:33:19;10.25;;;2.05;;
9799;SDS011;4939;52.00085300;4.17406100;2023-07-13T02:35:45;10.55;;;2.00;;
9799;SDS011;4939;52.00085300;4.17406100;2023-07-13T02:38:10;12.68;;;1.80;;
9799;SDS011;4939;52.00085300;4.17406100;2023-07-13T02:40:36;8.20;;;2.28;;
9799;SDS011;4939;52.00085300;4.17406100;2023-07-13T02:43:03;7.75;;;1.55;;
9799;SDS011;4939;52.00085300;4.17406100;2023-07-13T02:45:29;9.02;;;2.20;;
9799;SDS011;4939;52.00085300;4.17406100;2023-07-13T02:47:54;9.65;;;1.80;;
9799;SDS011;4939;52.00085300;4.17406100;2023-07-13T02:50:20;10.77;;;2.00;;
9799;SDS011;4939;52.00085300;4.17406100;2023-07-13T02:52:46;8.80;;;1.80;;
9799;SDS011;4939;52.00085300;4.17406100;2023-07-13T02:55:11;16.13;;;2.10;;
9799;SDS011;4939;52.00085300;4.17406100;2023-07-13T02:57:37;10.27;;;2.20;;
9799;SDS011;4939;52.00085300;4.17406100;2023-07-13T03:00:03;11.38;;;3.05;;
9799;SDS011;4939;52.00085300;4.17406100;2023-07-13T03:02:31;9.85;;;1.80;;
9799;SDS011;4939;52.00085300;4.17406100;2023-07-13T03:04:57;9.48;;;2.00;;
9799;SDS011;4939;52.00085300;4.17406100;2023-07-13T03:07:23;9.05;;;1.90;;
9799;SDS011;4939;52.00085300;4.17406100;2023-07-13T03:09:53;8.38;;;1.90;;
9799;SDS011;4939;52.00085300;4.17406100;2023-07-13T03:12:21;7.03;;;2.20;;
9799;SDS011;4939;52.00085300;4.17406100;2023-07-13T03:14:47;5.93;;;1.67;;
9799;SDS011;4939;52.00085300;4.17406100;2023-07-13T03:17:14;6.93;;;1.80;;
9799;SDS011;4939;52.00085300;4.17406100;2023-07-13T03:19:40;8.57;;;1.90;;
9799;SDS011;4939;52.00085300;4.17406100;2023-07-13T03:22:05;10.20;;;2.08;;
9799;SDS011;4939;52.00085300;4.17406100;2023-07-13T03:24:34;6.78;;;1.90;;
9799;SDS011;4939;52.00085300;4.17406100;2023-07-13T03:27:04;10.02;;;2.00;;
9799;SDS011;4939;52.00085300;4.17406100;2023-07-13T03:29:30;9.52;;;2.20;;
9799;SDS011;4939;52.00085300;4.17406100;2023-07-13T03:31:56;10.13;;;2.08;;
9799;SDS011;4939;52.00085300;4.17406100;2023-07-13T03:34:22;8.55;;;1.83;;
9799;SDS011;4939;52.00085300;4.17406100;2023-07-13T03:36:48;6.72;;;1.88;;
9799;SDS011;4939;52.00085300;4.17406100;2023-07-13T03:39:13;7.43;;;1.88;;
9799;SDS011;4939;52.00085300;4.17406100;2023-07-13T03:41:39;9.10;;;2.20;;
9799;SDS011;4939;52.00085300;4.17406100;2023-07-13T03:44:05;8.68;;;1.77;;
9799;SDS011;4939;52.00085300;4.17406100;2023-07-13T03:46:31;8.38;;;1.85;;
9799;SDS011;4939;52.00085300;4.17406100;2023-07-13T03:48:57;7.38;;;1.83;;
9799;SDS011;4939;52.00085300;4.17406100;2023-07-13T03:51:23;11.25;;;1.73;;
9799;SDS011;4939;52.00085300;4.17406100;2023-07-13T03:53:49;7.82;;;2.05;;
9799;SDS011;4939;52.00085300;4.17406100;2023-07-13T03:56:15;7.35;;;1.65;;
9799;SDS011;4939;52.00085300;4.17406100;2023-07-13T03:58:43;8.18;;;2.05;;
9799;SDS011;4939;52.00085300;4.17406100;2023-07-13T04:01:10;9.32;;;2.00;;
9799;SDS011;4939;52.00085300;4.17406100;2023-07-13T04:03:37;8.20;;;2.00;;
9799;SDS011;4939;52.00085300;4.17406100;2023-07-13T04:06:04;10.20;;;2.10;;
9799;SDS011;4939;52.00085300;4.17406100;2023-07-13T04:08:34;5.85;;;1.90;;
9799;SDS011;4939;52.00085300;4.17406100;2023-07-13T04:11:02;5.18;;;1.80;;
9799;SDS011;4939;52.00085300;4.17406100;2023-07-13T04:13:28;9.98;;;2.13;;
9799;SDS011;4939;52.00085300;4.17406100;2023-07-13T04:15:55;5.85;;;1.60;;
9799;SDS011;4939;52.00085300;4.17406100;2023-07-13T04:18:20;7.90;;;1.90;;
9799;SDS011;4939;52.00085300;4.17406100;2023-07-13T04:20:47;3.75;;;1.70;;
9799;SDS011;4939;52.00085300;4.17406100;2023-07-13T04:23:13;7.68;;;1.67;;
9799;SDS011;4939;52.00085300;4.17406100;2023-07-13T04:25:39;5.28;;;1.75;;
9799;SDS011;4939;52.00085300;4.17406100;2023-07-13T04:28:08;9.85;;;2.15;;
9799;SDS011;4939;52.00085300;4.17406100;2023-07-13T04:30:33;5.80;;;1.65;;
9799;SDS011;4939;52.00085300;4.17406100;2023-07-13T04:32:59;6.68;;;2.08;;
9799;SDS011;4939;52.00085300;4.17406100;2023-07-13T04:35:26;7.97;;;1.67;;
9799;SDS011;4939;52.00085300;4.17406100;2023-07-13T04:37:52;6.40;;;1.80;;
9799;SDS011;4939;52.00085300;4.17406100;2023-07-13T04:40:18;5.30;;;1.75;;
9799;SDS011;4939;52.00085300;4.17406100;2023-07-13T04:42:45;5.57;;;1.73;;
9799;SDS011;4939;52.00085300;4.17406100;2023-07-13T04:45:11;13.07;;;2.30;;
9799;SDS011;4939;52.00085300;4.17406100;2023-07-13T04:47:38;6.05;;;1.60;;
9799;SDS011;4939;52.00085300;4.17406100;2023-07-13T04:50:04;9.43;;;1.80;;
9799;SDS011;4939;52.00085300;4.17406100;2023-07-13T04:52:30;8.23;;;1.80;;
9799;SDS011;4939;52.00085300;4.17406100;2023-07-13T04:54:55;8.05;;;2.20;;
9799;SDS011;4939;52.00085300;4.17406100;2023-07-13T04:57:21;11.63;;;2.30;;
9799;SDS011;4939;52.00085300;4.17406100;2023-07-13T04:59:48;6.28;;;1.88;;
9799;SDS011;4939;52.00085300;4.17406100;2023-07-13T05:02:14;7.05;;;1.70;;
9799;SDS011;4939;52.00085300;4.17406100;2023-07-13T05:04:40;5.10;;;1.48;;
9799;SDS011;4939;52.00085300;4.17406100;2023-07-13T05:07:05;7.07;;;1.70;;
9799;SDS011;4939;52.00085300;4.17406100;2023-07-13T05:09:31;5.22;;;1.58;;
9799;SDS011;4939;52.00085300;4.17406100;2023-07-13T05:11:57;7.43;;;1.65;;
9799;SDS011;4939;52.00085300;4.17406100;2023-07-13T05:14:23;4.43;;;1.50;;
9799;SDS011;4939;52.00085300;4.17406100;2023-07-13T05:16:49;7.45;;;2.00;;
9799;SDS011;4939;52.00085300;4.17406100;2023-07-13T05:19:15;8.07;;;1.92;;
9799;SDS011;4939;52.00085300;4.17406100;2023-07-13T05:21:41;5.32;;;1.75;;
9799;SDS011;4939;52.00085300;4.17406100;2023-07-13T05:24:06;3.88;;;1.55;;
9799;SDS011;4939;52.00085300;4.17406100;2023-07-13T05:26:32;6.68;;;1.50;;
9799;SDS011;4939;52.00085300;4.17406100;2023-07-13T05:28:58;4.13;;;1.48;;
9799;SDS011;4939;52.00085300;4.17406100;2023-07-13T05:31:23;4.13;;;1.50;;
9799;SDS011;4939;52.00085300;4.17406100;2023-07-13T05:33:51;5.13;;;1.60;;
9799;SDS011;4939;52.00085300;4.17406100;2023-07-13T05:36:16;6.75;;;1.75;;
9799;SDS011;4939;52.00085300;4.17406100;2023-07-13T05:38:42;6.95;;;1.70;;
9799;SDS011;4939;52.00085300;4.17406100;2023-07-13T05:41:07;9.82;;;1.67;;
9799;SDS011;4939;52.00085300;4.17406100;2023-07-13T05:43:35;7.60;;;1.70;;
9799;SDS011;4939;52.00085300;4.17406100;2023-07-13T05:46:00;4.70;;;1.63;;
9799;SDS011;4939;52.00085300;4.17406100;2023-07-13T05:48:26;4.57;;;1.63;;
9799;SDS011;4939;52.00085300;4.17406100;2023-07-13T05:50:52;5.00;;;1.85;;
9799;SDS011;4939;52.00085300;4.17406100;2023-07-13T05:53:18;6.15;;;1.80;;
9799;SDS011;4939;52.00085300;4.17406100;2023-07-13T05:55:47;7.10;;;1.88;;
9799;SDS011;4939;52.00085300;4.17406100;2023-07-13T05:58:15;8.40;;;1.60;;
9799;SDS011;4939;52.00085300;4.17406100;2023-07-13T06:00:42;6.68;;;1.80;;
9799;SDS011;4939;52.00085300;4.17406100;2023-07-13T06:03:08;6.70;;;1.40;;
9799;SDS011;4939;52.00085300;4.17406100;2023-07-13T06:05:34;6.70;;;2.17;;
9799;SDS011;4939;52.00085300;4.17406100;2023-07-13T06:08:01;6.93;;;2.00;;
9799;SDS011;4939;52.00085300;4.17406100;2023-07-13T06:10:29;8.88;;;2.10;;
9799;SDS011;4939;52.00085300;4.17406100;2023-07-13T06:12:57;8.30;;;1.98;;
9799;SDS011;4939;52.00085300;4.17406100;2023-07-13T06:15:22;8.27;;;1.85;;
9799;SDS011;4939;52.00085300;4.17406100;2023-07-13T06:17:48;4.53;;;1.40;;
9799;SDS011;4939;52.00085300;4.17406100;2023-07-13T06:20:14;10.32;;;1.95;;
9799;SDS011;4939;52.00085300;4.17406100;2023-07-13T06:22:40;7.90;;;1.90;;
9799;SDS011;4939;52.00085300;4.17406100;2023-07-13T06:25:05;5.18;;;1.70;;
9799;SDS011;4939;52.00085300;4.17406100;2023-07-13T06:27:32;5.15;;;1.60;;
9799;SDS011;4939;52.00085300;4.17406100;2023-07-13T06:29:57;10.43;;;2.20;;
9799;SDS011;4939;52.00085300;4.17406100;2023-07-13T06:32:23;6.15;;;2.08;;
9799;SDS011;4939;52.00085300;4.17406100;2023-07-13T06:34:50;7.95;;;1.65;;
9799;SDS011;4939;52.00085300;4.17406100;2023-07-13T06:37:17;7.07;;;1.60;;
9799;SDS011;4939;52.00085300;4.17406100;2023-07-13T06:39:43;7.57;;;1.90;;
9799;SDS011;4939;52.00085300;4.17406100;2023-07-13T06:42:09;6.43;;;1.67;;
9799;SDS011;4939;52.00085300;4.17406100;2023-07-13T06:44:35;4.25;;;1.38;;
9799;SDS011;4939;52.00085300;4.17406100;2023-07-13T06:47:00;10.45;;;1.85;;
9799;SDS011;4939;52.00085300;4.17406100;2023-07-13T06:49:26;4.28;;;1.70;;
9799;SDS011;4939;52.00085300;4.17406100;2023-07-13T06:51:52;5.95;;;1.60;;
9799;SDS011;4939;52.00085300;4.17406100;2023-07-13T06:54:17;8.63;;;1.90;;
9799;SDS011;4939;52.00085300;4.17406100;2023-07-13T06:56:43;6.82;;;1.70;;
9799;SDS011;4939;52.00085300;4.17406100;2023-07-13T06:59:09;5.40;;;1.70;;
9799;SDS011;4939;52.00085300;4.17406100;2023-07-13T07:01:34;10.77;;;2.25;;
9799;SDS011;4939;52.00085300;4.17406100;2023-07-13T07:04:00;6.22;;;2.00;;
9799;SDS011;4939;52.00085300;4.17406100;2023-07-13T07:06:26;8.13;;;1.80;;
9799;SDS011;4939;52.00085300;4.17406100;2023-07-13T07:08:52;11.68;;;1.85;;
9799;SDS011;4939;52.00085300;4.17406100;2023-07-13T07:11:20;8.75;;;1.90;;
9799;SDS011;4939;52.00085300;4.17406100;2023-07-13T07:13:48;5.45;;;1.80;;
9799;SDS011;4939;52.00085300;4.17406100;2023-07-13T07:16:15;4.55;;;1.38;;
9799;SDS011;4939;52.00085300;4.17406100;2023-07-13T07:18:41;8.48;;;2.10;;
9799;SDS011;4939;52.00085300;4.17406100;2023-07-13T07:21:07;8.93;;;1.90;;
9799;SDS011;4939;52.00085300;4.17406100;2023-07-13T07:23:34;7.40;;;2.00;;
9799;SDS011;4939;52.00085300;4.17406100;2023-07-13T07:26:00;10.90;;;2.38;;
9799;SDS011;4939;52.00085300;4.17406100;2023-07-13T07:28:26;6.45;;;1.90;;
9799;SDS011;4939;52.00085300;4.17406100;2023-07-13T07:30:53;5.60;;;1.88;;
9799;SDS011;4939;52.00085300;4.17406100;2023-07-13T07:33:20;5.70;;;1.70;;
9799;SDS011;4939;52.00085300;4.17406100;2023-07-13T07:35:46;5.50;;;1.77;;
9799;SDS011;4939;52.00085300;4.17406100;2023-07-13T07:38:12;5.97;;;2.00;;
9799;SDS011;4939;52.00085300;4.17406100;2023-07-13T07:40:38;6.90;;;2.05;;
9799;SDS011;4939;52.00085300;4.17406100;2023-07-13T07:43:06;9.80;;;1.92;;
9799;SDS011;4939;52.00085300;4.17406100;2023-07-13T07:45:32;5.10;;;1.67;;
9799;SDS011;4939;52.00085300;4.17406100;2023-07-13T07:47:58;5.30;;;1.83;;
9799;SDS011;4939;52.00085300;4.17406100;2023-07-13T07:50:25;7.32;;;1.88;;
9799;SDS011;4939;52.00085300;4.17406100;2023-07-13T07:52:53;5.20;;;2.05;;
9799;SDS011;4939;52.00085300;4.17406100;2023-07-13T07:55:21;6.22;;;1.80;;
9799;SDS011;4939;52.00085300;4.17406100;2023-07-13T07:57:47;8.98;;;1.70;;
9799;SDS011;4939;52.00085300;4.17406100;2023-07-13T08:00:14;6.60;;;1.85;;
9799;SDS011;4939;52.00085300;4.17406100;2023-07-13T08:02:40;6.38;;;1.70;;
9799;SDS011;4939;52.00085300;4.17406100;2023-07-13T08:05:07;6.93;;;1.83;;
9799;SDS011;4939;52.00085300;4.17406100;2023-07-13T08:07:36;9.07;;;2.08;;
9799;SDS011;4939;52.00085300;4.17406100;2023-07-13T08:10:02;5.95;;;1.83;;
9799;SDS011;4939;52.00085300;4.17406100;2023-07-13T08:12:29;7.38;;;2.10;;
9799;SDS011;4939;52.00085300;4.17406100;2023-07-13T08:14:54;7.57;;;1.70;;
9799;SDS011;4939;52.00085300;4.17406100;2023-07-13T08:17:23;7.43;;;2.03;;
9799;SDS011;4939;52.00085300;4.17406100;2023-07-13T08:19:50;7.90;;;2.30;;
9799;SDS011;4939;52.00085300;4.17406100;2023-07-13T08:22:15;11.23;;;2.30;;
9799;SDS011;4939;52.00085300;4.17406100;2023-07-13T08:24:41;6.00;;;2.10;;
9799;SDS011;4939;52.00085300;4.17406100;2023-07-13T08:27:10;6.80;;;1.95;;
9799;SDS011;4939;52.00085300;4.17406100;2023-07-13T08:29:37;8.50;;;2.03;;
9799;SDS011;4939;52.00085300;4.17406100;2023-07-13T08:32:04;9.23;;;2.17;;
9799;SDS011;4939;52.00085300;4.17406100;2023-07-13T08:34:31;6.75;;;2.10;;
9799;SDS011;4939;52.00085300;4.17406100;2023-07-13T08:36:57;6.65;;;1.52;;
9799;SDS011;4939;52.00085300;4.17406100;2023-07-13T08:39:22;7.65;;;1.88;;
9799;SDS011;4939;52.00085300;4.17406100;2023-07-13T08:41:49;6.68;;;2.15;;
9799;SDS011;4939;52.00085300;4.17406100;2023-07-13T08:44:25;9.27;;;2.28;;
9799;SDS011;4939;52.00085300;4.17406100;2023-07-13T08:47:01;8.68;;;2.20;;
9799;SDS011;4939;52.00085300;4.17406100;2023-07-13T08:49:27;6.82;;;2.30;;
9799;SDS011;4939;52.00085300;4.17406100;2023-07-13T08:51:58;6.25;;;2.08;;
9799;SDS011;4939;52.00085300;4.17406100;2023-07-13T08:54:31;6.32;;;2.00;;
9799;SDS011;4939;52.00085300;4.17406100;2023-07-13T08:57:09;6.07;;;1.88;;
9799;SDS011;4939;52.00085300;4.17406100;2023-07-13T08:59:38;7.10;;;2.10;;
9799;SDS011;4939;52.00085300;4.17406100;2023-07-13T09:04:37;10.15;;;2.35;;
9799;SDS011;4939;52.00085300;4.17406100;2023-07-13T09:07:29;10.20;;;2.00;;
9799;SDS011;4939;52.00085300;4.17406100;2023-07-13T09:10:21;7.43;;;2.05;;
9799;SDS011;4939;52.00085300;4.17406100;2023-07-13T09:15:32;9.05;;;2.00;;
9799;SDS011;4939;52.00085300;4.17406100;2023-07-13T09:20:54;6.05;;;2.30;;
9799;SDS011;4939;52.00085300;4.17406100;2023-07-13T09:23:30;7.90;;;2.17;;
9799;SDS011;4939;52.00085300;4.17406100;2023-07-13T09:26:04;5.13;;;1.95;;
9799;SDS011;4939;52.00085300;4.17406100;2023-07-13T09:28:40;6.72;;;2.20;;
9799;SDS011;4939;52.00085300;4.17406100;2023-07-13T09:31:23;5.78;;;1.85;;
9799;SDS011;4939;52.00085300;4.17406100;2023-07-13T09:33:59;5.95;;;1.98;;
9799;SDS011;4939;52.00085300;4.17406100;2023-07-13T09:36:29;5.22;;;2.40;;
9799;SDS011;4939;52.00085300;4.17406100;2023-07-13T09:44:13;6.07;;;2.10;;
9799;SDS011;4939;52.00085300;4.17406100;2023-07-13T09:46:51;9.52;;;2.30;;
9799;SDS011;4939;52.00085300;4.17406100;2023-07-13T09:49:23;6.65;;;2.00;;
9799;SDS011;4939;52.00085300;4.17406100;2023-07-13T09:51:50;8.87;;;2.37;;
9799;SDS011;4939;52.00085300;4.17406100;2023-07-13T09:54:25;7.53;;;2.00;;
9799;SDS011;4939;52.00085300;4.17406100;2023-07-13T09:56:58;7.85;;;2.33;;
9799;SDS011;4939;52.00085300;4.17406100;2023-07-13T09:59:37;8.20;;;2.60;;
9799;SDS011;4939;52.00085300;4.17406100;2023-07-13T10:05:06;6.38;;;1.92;;
9799;SDS011;4939;52.00085300;4.17406100;2023-07-13T10:07:41;5.82;;;2.15;;
9799;SDS011;4939;52.00085300;4.17406100;2023-07-13T10:10:20;5.82;;;2.03;;
9799;SDS011;4939;52.00085300;4.17406100;2023-07-13T10:12:48;6.93;;;2.30;;
9799;SDS011;4939;52.00085300;4.17406100;2023-07-13T10:15:15;11.07;;;2.20;;
9799;SDS011;4939;52.00085300;4.17406100;2023-07-13T10:17:44;6.22;;;2.20;;
9799;SDS011;4939;52.00085300;4.17406100;2023-07-13T10:20:13;8.07;;;2.20;;
9799;SDS011;4939;52.00085300;4.17406100;2023-07-13T10:22:59;6.70;;;2.20;;
9799;SDS011;4939;52.00085300;4.17406100;2023-07-13T10:25:34;7.95;;;2.25;;
9799;SDS011;4939;52.00085300;4.17406100;2023-07-13T10:30:52;7.25;;;2.25;;
9799;SDS011;4939;52.00085300;4.17406100;2023-07-13T10:33:20;3.17;;;1.58;;
9799;SDS011;4939;52.00085300;4.17406100;2023-07-13T10:35:48;5.88;;;2.00;;
9799;SDS011;4939;52.00085300;4.17406100;2023-07-13T10:38:21;7.85;;;1.95;;
9799;SDS011;4939;52.00085300;4.17406100;2023-07-13T10:41:02;7.13;;;2.35;;
9799;SDS011;4939;52.00085300;4.17406100;2023-07-13T10:43:34;8.13;;;2.40;;
9799;SDS011;4939;52.00085300;4.17406100;2023-07-13T10:46:03;5.93;;;2.33;;
9799;SDS011;4939;52.00085300;4.17406100;2023-07-13T10:48:30;7.00;;;1.83;;
9799;SDS011;4939;52.00085300;4.17406100;2023-07-13T10:51:00;7.10;;;2.38;;
9799;SDS011;4939;52.00085300;4.17406100;2023-07-13T10:56:00;5.63;;;2.20;;
9799;SDS011;4939;52.00085300;4.17406100;2023-07-13T10:58:40;4.40;;;1.95;;
9799;SDS011;4939;52.00085300;4.17406100;2023-07-13T11:01:17;6.85;;;2.35;;
9799;SDS011;4939;52.00085300;4.17406100;2023-07-13T11:08:53;5.82;;;2.20;;
9799;SDS011;4939;52.00085300;4.17406100;2023-07-13T11:18:50;5.35;;;2.03;;
9799;SDS011;4939;52.00085300;4.17406100;2023-07-13T11:21:28;8.60;;;2.33;;
9799;SDS011;4939;52.00085300;4.17406100;2023-07-13T11:24:03;5.03;;;2.28;;
9799;SDS011;4939;52.00085300;4.17406100;2023-07-13T11:31:40;3.95;;;1.80;;
9799;SDS011;4939;52.00085300;4.17406100;2023-07-13T11:34:12;3.70;;;1.63;;
9799;SDS011;4939;52.00085300;4.17406100;2023-07-13T11:36:42;5.70;;;1.90;;
9799;SDS011;4939;52.00085300;4.17406100;2023-07-13T11:41:45;6.05;;;2.00;;
9799;SDS011;4939;52.00085300;4.17406100;2023-07-13T11:44:17;6.88;;;2.30;;
9799;SDS011;4939;52.00085300;4.17406100;2023-07-13T11:46:47;3.38;;;1.55;;
9799;SDS011;4939;52.00085300;4.17406100;2023-07-13T11:49:21;4.90;;;1.70;;
9799;SDS011;4939;52.00085300;4.17406100;2023-07-13T11:51:52;3.03;;;1.23;;
9799;SDS011;4939;52.00085300;4.17406100;2023-07-13T11:54:22;5.57;;;2.05;;
9799;SDS011;4939;52.00085300;4.17406100;2023-07-13T11:56:58;5.25;;;1.60;;
9799;SDS011;4939;52.00085300;4.17406100;2023-07-13T11:59:27;5.32;;;2.20;;
9799;SDS011;4939;52.00085300;4.17406100;2023-07-13T12:01:55;6.40;;;1.75;;
9799;SDS011;4939;52.00085300;4.17406100;2023-07-13T12:04:25;4.93;;;1.50;;
9799;SDS011;4939;52.00085300;4.17406100;2023-07-13T12:07:03;6.93;;;1.70;;
9799;SDS011;4939;52.00085300;4.17406100;2023-07-13T12:09:34;5.05;;;1.45;;
9799;SDS011;4939;52.00085300;4.17406100;2023-07-13T12:12:02;4.68;;;1.27;;
9799;SDS011;4939;52.00085300;4.17406100;2023-07-13T12:14:28;5.85;;;1.77;;
9799;SDS011;4939;52.00085300;4.17406100;2023-07-13T12:16:54;5.25;;;1.90;;
9799;SDS011;4939;52.00085300;4.17406100;2023-07-13T12:19:27;2.47;;;1.23;;
9799;SDS011;4939;52.00085300;4.17406100;2023-07-13T12:21:58;3.20;;;1.75;;
9799;SDS011;4939;52.00085300;4.17406100;2023-07-13T12:24:24;4.68;;;1.38;;
9799;SDS011;4939;52.00085300;4.17406100;2023-07-13T12:27:34;6.40;;;1.75;;
9799;SDS011;4939;52.00085300;4.17406100;2023-07-13T12:29:52;4.25;;;1.65;;
9799;SDS011;4939;52.00085300;4.17406100;2023-07-13T12:32:24;4.70;;;1.60;;
9799;SDS011;4939;52.00085300;4.17406100;2023-07-13T12:34:55;4.75;;;1.75;;
9799;SDS011;4939;52.00085300;4.17406100;2023-07-13T12:37:22;5.82;;;1.80;;
9799;SDS011;4939;52.00085300;4.17406100;2023-07-13T12:39:49;5.28;;;1.77;;
9799;SDS011;4939;52.00085300;4.17406100;2023-07-13T12:42:25;5.05;;;1.40;;
9799;SDS011;4939;52.00085300;4.17406100;2023-07-13T12:45:19;6.38;;;2.00;;
9799;SDS011;4939;52.00085300;4.17406100;2023-07-13T12:47:49;4.30;;;1.25;;
9799;SDS011;4939;52.00085300;4.17406100;2023-07-13T12:50:22;2.97;;;1.20;;
9799;SDS011;4939;52.00085300;4.17406100;2023-07-13T12:52:55;6.75;;;1.77;;
9799;SDS011;4939;52.00085300;4.17406100;2023-07-13T12:55:26;5.63;;;1.30;;
9799;SDS011;4939;52.00085300;4.17406100;2023-07-13T12:57:54;2.88;;;1.33;;
9799;SDS011;4939;52.00085300;4.17406100;2023-07-13T13:00:28;4.07;;;1.30;;
9799;SDS011;4939;52.00085300;4.17406100;2023-07-13T13:02:56;4.15;;;1.42;;
9799;SDS011;4939;52.00085300;4.17406100;2023-07-13T13:05:25;4.25;;;1.35;;
9799;SDS011;4939;52.00085300;4.17406100;2023-07-13T13:07:52;2.58;;;1.10;;
9799;SDS011;4939;52.00085300;4.17406100;2023-07-13T13:10:17;3.95;;;1.10;;
9799;SDS011;4939;52.00085300;4.17406100;2023-07-13T13:12:43;4.15;;;1.50;;
9799;SDS011;4939;52.00085300;4.17406100;2023-07-13T13:15:09;4.28;;;1.40;;
9799;SDS011;4939;52.00085300;4.17406100;2023-07-13T13:17:36;3.95;;;1.38;;
9799;SDS011;4939;52.00085300;4.17406100;2023-07-13T13:20:16;3.38;;;1.20;;
9799;SDS011;4939;52.00085300;4.17406100;2023-07-13T13:22:45;4.18;;;1.30;;
9799;SDS011;4939;52.00085300;4.17406100;2023-07-13T13:25:13;4.13;;;1.35;;
9799;SDS011;4939;52.00085300;4.17406100;2023-07-13T13:27:43;4.35;;;1.10;;
9799;SDS011;4939;52.00085300;4.17406100;2023-07-13T13:30:14;6.22;;;1.30;;
9799;SDS011;4939;52.00085300;4.17406100;2023-07-13T13:32:44;4.40;;;1.23;;
9799;SDS011;4939;52.00085300;4.17406100;2023-07-13T13:35:15;3.08;;;1.20;;
9799;SDS011;4939;52.00085300;4.17406100;2023-07-13T13:37:43;4.53;;;1.40;;
9799;SDS011;4939;52.00085300;4.17406100;2023-07-13T13:40:14;2.70;;;1.10;;
9799;SDS011;4939;52.00085300;4.17406100;2023-07-13T13:42:42;3.58;;;1.30;;
9799;SDS011;4939;52.00085300;4.17406100;2023-07-13T13:45:11;4.55;;;1.35;;
9799;SDS011;4939;52.00085300;4.17406100;2023-07-13T13:47:38;5.38;;;1.50;;
9799;SDS011;4939;52.00085300;4.17406100;2023-07-13T13:50:16;4.15;;;2.15;;
9799;SDS011;4939;52.00085300;4.17406100;2023-07-13T13:52:44;4.13;;;1.80;;
9799;SDS011;4939;52.00085300;4.17406100;2023-07-13T13:57:44;5.05;;;1.80;;
9799;SDS011;4939;52.00085300;4.17406100;2023-07-13T14:00:11;3.63;;;1.50;;
9799;SDS011;4939;52.00085300;4.17406100;2023-07-13T14:02:40;3.70;;;1.30;;